sensor_id;sensor_type;location;lat;lon;timestamp;pressure;altitude;pressure_sealevel;temperature;humidity
9672;BME280;4874;43.568;27.824;2023-11-21T00:02:26;98730.69;;;8.24;100.00
9672;BME280;4874;43.568;27.824;2023-11-21T00:04:54;98705.28;;;8.12;100.00
9672;BME280;4874;43.568;27.824;2023-11-21T00:07:20;98723.38;;;8.07;100.00
9672;BME280;4874;43.568;27.824;2023-11-21T00:09:48;98728.22;;;8.02;100.00
9672;BME280;4874;43.568;27.824;2023-11-21T00:12:15;98742.56;;;8.00;100.00
9672;BME280;4874;43.568;27.824;2023-11-21T00:14:42;98738.00;;;8.02;100.00
9672;BME280;4874;43.568;27.824;2023-11-21T00:17:08;98726.41;;;7.93;100.00
9672;BME280;4874;43.568;27.824;2023-11-21T00:19:35;98695.41;;;8.05;100.00
9672;BME280;4874;43.568;27.824;2023-11-21T00:22:02;98712.34;;;7.63;100.00
9672;BME280;4874;43.568;27.824;2023-11-21T00:24:29;98715.63;;;7.76;100.00
9672;BME280;4874;43.568;27.824;2023-11-21T00:26:56;98713.66;;;8.08;100.00
9672;BME280;4874;43.568;27.824;2023-11-21T00:29:22;98709.78;;;7.82;100.00
9672;BME280;4874;43.568;27.824;2023-11-21T00:31:49;98708.84;;;7.83;100.00
9672;BME280;4874;43.568;27.824;2023-11-21T00:34:16;98708.44;;;7.87;100.00
9672;BME280;4874;43.568;27.824;2023-11-21T00:36:43;98679.28;;;7.68;100.00
9672;BME280;4874;43.568;27.824;2023-11-21T00:39:09;98705.22;;;8.23;100.00
9672;BME280;4874;43.568;27.824;2023-11-21T00:41:38;98716.75;;;8.22;100.00
9672;BME280;4874;43.568;27.824;2023-11-21T00:44:04;98709.84;;;7.91;100.00
9672;BME280;4874;43.568;27.824;2023-11-21T00:46:33;98633.44;;;7.69;100.00
9672;BME280;4874;43.568;27.824;2023-11-21T00:49:00;98709.06;;;8.10;100.00
9672;BME280;4874;43.568;27.824;2023-11-21T00:51:26;98678.22;;;7.80;100.00
9672;BME280;4874;43.568;27.824;2023-11-21T00:53:53;98703.06;;;8.08;100.00
9672;BME280;4874;43.568;27.824;2023-11-21T00:56:20;98680.75;;;8.31;100.00
9672;BME280;4874;43.568;27.824;2023-11-21T00:58:47;98706.50;;;8.39;100.00
9672;BME280;4874;43.568;27.824;2023-11-21T01:01:16;98709.00;;;8.30;100.00
9672;BME280;4874;43.568;27.824;2023-11-21T01:03:43;98667.84;;;7.88;100.00
9672;BME280;4874;43.568;27.824;2023-11-21T01:06:12;98721.41;;;8.00;100.00
9672;BME280;4874;43.568;27.824;2023-11-21T01:08:41;98684.88;;;7.75;100.00
9672;BME280;4874;43.568;27.824;2023-11-21T01:11:08;98713.94;;;8.14;100.00
9672;BME280;4874;43.568;27.824;2023-11-21T01:13:34;98701.94;;;8.01;100.00
9672;BME280;4874;43.568;27.824;2023-11-21T01:16:02;98707.34;;;8.29;100.00
9672;BME280;4874;43.568;27.824;2023-11-21T01:18:30;98708.06;;;8.41;100.00
9672;BME280;4874;43.568;27.824;2023-11-21T01:20:57;98696.78;;;8.68;100.00
9672;BME280;4874;43.568;27.824;2023-11-21T01:23:24;98687.31;;;8.46;100.00
9672;BME280;4874;43.568;27.824;2023-11-21T01:25:50;98699.28;;;8.60;100.00
9672;BME280;4874;43.568;27.824;2023-11-21T01:28:35;98699.88;;;8.82;100.00
9672;BME280;4874;43.568;27.824;2023-11-21T01:31:02;98700.97;;;8.89;100.00
9672;BME280;4874;43.568;27.824;2023-11-21T01:33:28;98702.94;;;8.87;100.00
9672;BME280;4874;43.568;27.824;2023-11-21T01:35:55;98696.22;;;8.64;100.00
9672;BME280;4874;43.568;27.824;2023-11-21T01:38:22;98697.06;;;8.36;100.00
9672;BME280;4874;43.568;27.824;2023-11-21T01:40:49;98695.38;;;8.54;100.00
9672;BME280;4874;43.568;27.824;2023-11-21T01:43:16;98693.00;;;8.32;100.00
9672;BME280;4874;43.568;27.824;2023-11-21T01:45:43;98692.72;;;8.35;100.00
9672;BME280;4874;43.568;27.824;2023-11-21T01:48:13;98673.19;;;8.17;100.00
9672;BME280;4874;43.568;27.824;2023-11-21T01:50:40;98680.00;;;8.10;100.00
9672;BME280;4874;43.568;27.824;2023-11-21T01:53:07;98680.97;;;8.18;100.00
9672;BME280;4874;43.568;27.824;2023-11-21T01:55:35;98670.66;;;8.06;100.00
9672;BME280;4874;43.568;27.824;2023-11-21T01:58:02;98680.63;;;7.93;100.00
9672;BME280;4874;43.568;27.824;2023-11-21T02:00:29;98671.59;;;7.95;100.00
9672;BME280;4874;43.568;27.824;2023-11-21T02:02:56;98636.22;;;7.68;100.00
9672;BME280;4874;43.568;27.824;2023-11-21T02:05:23;98668.28;;;8.03;100.00
9672;BME280;4874;43.568;27.824;2023-11-21T02:07:50;98661.63;;;8.08;100.00
9672;BME280;4874;43.568;27.824;2023-11-21T02:10:19;98666.06;;;8.08;100.00
9672;BME280;4874;43.568;27.824;2023-11-21T02:12:49;98670.28;;;7.71;100.00
9672;BME280;4874;43.568;27.824;2023-11-21T02:15:19;98672.91;;;7.71;100.00
9672;BME280;4874;43.568;27.824;2023-11-21T02:17:53;98677.94;;;7.74;100.00
9672;BME280;4874;43.568;27.824;2023-11-21T02:20:22;98682.28;;;7.84;100.00
9672;BME280;4874;43.568;27.824;2023-11-21T02:22:54;98687.72;;;7.83;100.00
9672;BME280;4874;43.568;27.824;2023-11-21T02:25:33;98684.78;;;7.86;100.00
9672;BME280;4874;43.568;27.824;2023-11-21T02:28:01;98687.34;;;7.97;100.00
9672;BME280;4874;43.568;27.824;2023-11-21T02:30:29;98696.59;;;7.82;100.00
9672;BME280;4874;43.568;27.824;2023-11-21T02:33:02;98693.00;;;7.83;100.00
9672;BME280;4874;43.568;27.824;2023-11-21T02:35:29;98704.94;;;7.87;100.00
9672;BME280;4874;43.568;27.824;2023-11-21T02:37:57;98698.00;;;7.95;100.00
9672;BME280;4874;43.568;27.824;2023-11-21T02:40:24;98704.34;;;7.74;100.00
9672;BME280;4874;43.568;27.824;2023-11-21T02:42:53;98718.38;;;8.04;100.00
9672;BME280;4874;43.568;27.824;2023-11-21T02:45:20;98719.59;;;8.40;100.00
9672;BME280;4874;43.568;27.824;2023-11-21T02:47:51;98757.69;;;8.28;100.00
9672;BME280;4874;43.568;27.824;2023-11-21T02:50:20;98716.44;;;8.06;100.00
9672;BME280;4874;43.568;27.824;2023-11-21T02:52:47;98682.06;;;7.67;100.00
9672;BME280;4874;43.568;27.824;2023-11-21T02:55:14;98710.75;;;7.71;100.00
9672;BME280;4874;43.568;27.824;2023-11-21T02:57:41;98720.22;;;7.83;100.00
9672;BME280;4874;43.568;27.824;2023-11-21T03:00:07;98719.94;;;8.16;100.00
9672;BME280;4874;43.568;27.824;2023-11-21T03:02:34;98715.81;;;7.54;100.00
9672;BME280;4874;43.568;27.824;2023-11-21T03:05:06;98718.78;;;7.40;100.00
9672;BME280;4874;43.568;27.824;2023-11-21T03:07:33;98720.03;;;7.66;100.00
9672;BME280;4874;43.568;27.824;2023-11-21T03:10:00;98719.19;;;7.65;100.00
9672;BME280;4874;43.568;27.824;2023-11-21T03:12:27;98717.88;;;7.50;100.00
9672;BME280;4874;43.568;27.824;2023-11-21T03:14:53;98721.34;;;7.51;100.00
9672;BME280;4874;43.568;27.824;2023-11-21T03:17:20;98719.66;;;7.50;100.00
9672;BME280;4874;43.568;27.824;2023-11-21T03:19:47;98721.34;;;7.51;100.00
9672;BME280;4874;43.568;27.824;2023-11-21T03:22:14;98724.59;;;7.64;100.00
9672;BME280;4874;43.568;27.824;2023-11-21T03:24:41;98724.63;;;7.73;100.00
9672;BME280;4874;43.568;27.824;2023-11-21T03:27:07;98721.63;;;7.27;100.00
9672;BME280;4874;43.568;27.824;2023-11-21T03:29:34;98716.25;;;7.59;100.00
9672;BME280;4874;43.568;27.824;2023-11-21T03:32:01;98724.00;;;7.51;100.00
9672;BME280;4874;43.568;27.824;2023-11-21T03:34:28;98718.25;;;7.04;100.00
9672;BME280;4874;43.568;27.824;2023-11-21T03:36:55;98718.25;;;7.04;100.00
9672;BME280;4874;43.568;27.824;2023-11-21T03:39:22;98712.66;;;6.98;100.00
9672;BME280;4874;43.568;27.824;2023-11-21T03:41:49;98714.69;;;7.26;100.00
9672;BME280;4874;43.568;27.824;2023-11-21T03:44:16;98716.66;;;6.92;100.00
9672;BME280;4874;43.568;27.824;2023-11-21T03:46:44;98724.56;;;7.13;100.00
9672;BME280;4874;43.568;27.824;2023-11-21T03:49:11;98724.38;;;6.84;100.00
9672;BME280;4874;43.568;27.824;2023-11-21T03:51:37;98715.50;;;6.85;100.00
9672;BME280;4874;43.568;27.824;2023-11-21T03:54:04;98717.06;;;7.08;100.00
9672;BME280;4874;43.568;27.824;2023-11-21T03:56:31;98722.72;;;6.83;100.00
9672;BME280;4874;43.568;27.824;2023-11-21T03:58:57;98704.00;;;7.07;100.00
9672;BME280;4874;43.568;27.824;2023-11-21T04:01:24;98720.41;;;6.90;100.00
9672;BME280;4874;43.568;27.824;2023-11-21T04:03:51;98711.50;;;6.91;100.00
9672;BME280;4874;43.568;27.824;2023-11-21T04:06:18;98718.25;;;6.84;100.00
9672;BME280;4874;43.568;27.824;2023-11-21T04:08:45;98707.91;;;6.71;100.00
9672;BME280;4874;43.568;27.824;2023-11-21T04:11:12;98717.03;;;6.88;100.00
9672;BME280;4874;43.568;27.824;2023-11-21T04:13:39;98715.56;;;6.74;100.00
9672;BME280;4874;43.568;27.824;2023-11-21T04:16:07;98717.63;;;6.91;100.00
9672;BME280;4874;43.568;27.824;2023-11-21T04:18:36;98719.88;;;6.96;100.00
9672;BME280;4874;43.568;27.824;2023-11-21T04:21:07;98663.34;;;6.57;100.00
9672;BME280;4874;43.568;27.824;2023-11-21T04:23:35;98720.09;;;7.04;100.00
9672;BME280;4874;43.568;27.824;2023-11-21T04:26:01;98721.47;;;7.08;100.00
9672;BME280;4874;43.568;27.824;2023-11-21T04:28:29;98718.09;;;7.17;100.00
9672;BME280;4874;43.568;27.824;2023-11-21T04:30:56;98718.53;;;7.22;100.00
9672;BME280;4874;43.568;27.824;2023-11-21T04:33:22;98711.06;;;7.06;100.00
9672;BME280;4874;43.568;27.824;2023-11-21T04:35:49;98721.16;;;7.22;100.00
9672;BME280;4874;43.568;27.824;2023-11-21T04:38:16;98722.50;;;7.16;100.00
9672;BME280;4874;43.568;27.824;2023-11-21T04:40:43;98731.59;;;7.03;100.00
9672;BME280;4874;43.568;27.824;2023-11-21T04:43:10;98734.69;;;7.29;100.00
9672;BME280;4874;43.568;27.824;2023-11-21T04:45:37;98739.88;;;7.60;100.00
9672;BME280;4874;43.568;27.824;2023-11-21T04:48:04;98736.81;;;7.35;100.00
9672;BME280;4874;43.568;27.824;2023-11-21T04:50:31;98712.53;;;7.20;100.00
9672;BME280;4874;43.568;27.824;2023-11-21T04:52:58;98731.53;;;7.55;100.00
9672;BME280;4874;43.568;27.824;2023-11-21T04:55:25;98738.72;;;7.53;100.00
9672;BME280;4874;43.568;27.824;2023-11-21T04:57:54;98740.19;;;7.67;100.00
9672;BME280;4874;43.568;27.824;2023-11-21T05:00:21;98727.53;;;7.61;100.00
9672;BME280;4874;43.568;27.824;2023-11-21T05:02:48;98742.66;;;7.59;100.00
9672;BME280;4874;43.568;27.824;2023-11-21T05:05:15;98742.78;;;7.57;100.00
9672;BME280;4874;43.568;27.824;2023-11-21T05:07:41;98739.34;;;7.66;100.00
9672;BME280;4874;43.568;27.824;2023-11-21T05:10:09;98747.84;;;7.70;100.00
9672;BME280;4874;43.568;27.824;2023-11-21T05:12:39;98748.72;;;7.50;100.00
9672;BME280;4874;43.568;27.824;2023-11-21T05:15:08;98747.16;;;7.68;100.00
9672;BME280;4874;43.568;27.824;2023-11-21T05:17:38;98713.56;;;7.29;100.00
9672;BME280;4874;43.568;27.824;2023-11-21T05:20:10;98742.13;;;7.65;100.00
9672;BME280;4874;43.568;27.824;2023-11-21T05:22:37;98751.78;;;7.75;100.00
9672;BME280;4874;43.568;27.824;2023-11-21T05:25:05;98764.72;;;7.78;100.00
9672;BME280;4874;43.568;27.824;2023-11-21T05:27:34;98707.22;;;7.10;100.00
9672;BME280;4874;43.568;27.824;2023-11-21T05:30:02;98741.91;;;7.27;100.00
9672;BME280;4874;43.568;27.824;2023-11-21T05:32:34;98778.34;;;7.33;100.00
9672;BME280;4874;43.568;27.824;2023-11-21T05:35:01;98722.50;;;7.16;100.00
9672;BME280;4874;43.568;27.824;2023-11-21T05:37:28;98786.59;;;7.60;100.00
9672;BME280;4874;43.568;27.824;2023-11-21T05:39:55;98773.66;;;7.57;100.00
9672;BME280;4874;43.568;27.824;2023-11-21T05:42:23;98766.50;;;7.27;100.00
9672;BME280;4874;43.568;27.824;2023-11-21T05:44:50;98776.56;;;7.54;100.00
9672;BME280;4874;43.568;27.824;2023-11-21T05:47:16;98786.31;;;7.42;100.00
9672;BME280;4874;43.568;27.824;2023-11-21T05:49:44;98780.53;;;7.48;100.00
9672;BME280;4874;43.568;27.824;2023-11-21T05:52:12;98789.81;;;7.43;100.00
9672;BME280;4874;43.568;27.824;2023-11-21T05:54:39;98784.03;;;7.49;100.00
9672;BME280;4874;43.568;27.824;2023-11-21T05:57:05;98780.78;;;7.66;100.00
9672;BME280;4874;43.568;27.824;2023-11-21T05:59:32;98783.09;;;7.80;100.00
9672;BME280;4874;43.568;27.824;2023-11-21T06:01:59;98782.25;;;7.79;100.00
9672;BME280;4874;43.568;27.824;2023-11-21T06:04:25;98783.66;;;8.13;100.00
9672;BME280;4874;43.568;27.824;2023-11-21T06:06:52;98783.09;;;8.19;100.00
9672;BME280;4874;43.568;27.824;2023-11-21T06:09:20;98779.47;;;8.51;100.00
9672;BME280;4874;43.568;27.824;2023-11-21T06:11:47;98781.41;;;8.49;100.00
9672;BME280;4874;43.568;27.824;2023-11-21T06:14:14;98782.38;;;8.38;100.00
9672;BME280;4874;43.568;27.824;2023-11-21T06:16:44;98786.88;;;8.57;100.00
9672;BME280;4874;43.568;27.824;2023-11-21T06:19:11;98790.66;;;8.73;100.00
9672;BME280;4874;43.568;27.824;2023-11-21T06:21:39;98797.78;;;8.92;100.00
9672;BME280;4874;43.568;27.824;2023-11-21T06:24:05;98784.56;;;8.82;100.00
9672;BME280;4874;43.568;27.824;2023-11-21T06:26:33;98790.94;;;8.80;100.00
9672;BME280;4874;43.568;27.824;2023-11-21T06:29:01;98797.66;;;8.93;100.00
9672;BME280;4874;43.568;27.824;2023-11-21T06:31:29;98799.59;;;9.10;100.00
9672;BME280;4874;43.568;27.824;2023-11-21T06:33:56;98787.06;;;9.31;100.00
9672;BME280;4874;43.568;27.824;2023-11-21T06:36:24;98770.06;;;9.24;100.00
9672;BME280;4874;43.568;27.824;2023-11-21T06:38:51;98787.59;;;9.54;100.00
9672;BME280;4874;43.568;27.824;2023-11-21T06:41:17;98787.72;;;9.72;100.00
9672;BME280;4874;43.568;27.824;2023-11-21T06:43:44;98777.19;;;10.53;100.00
9672;BME280;4874;43.568;27.824;2023-11-21T06:46:13;98775.81;;;9.85;100.00
9672;BME280;4874;43.568;27.824;2023-11-21T06:48:44;98740.09;;;9.80;100.00
9672;BME280;4874;43.568;27.824;2023-11-21T06:51:11;98781.31;;;10.65;100.00
9672;BME280;4874;43.568;27.824;2023-11-21T06:53:39;98774.63;;;10.61;100.00
9672;BME280;4874;43.568;27.824;2023-11-21T06:56:15;98731.69;;;9.94;100.00
9672;BME280;4874;43.568;27.824;2023-11-21T06:58:46;98772.84;;;10.34;100.00
9672;BME280;4874;43.568;27.824;2023-11-21T07:01:13;98739.97;;;10.18;100.00
9672;BME280;4874;43.568;27.824;2023-11-21T07:03:40;98716.72;;;10.29;100.00
9672;BME280;4874;43.568;27.824;2023-11-21T07:06:08;98732.56;;;10.21;100.00
9672;BME280;4874;43.568;27.824;2023-11-21T07:08:35;98769.94;;;10.55;100.00
9672;BME280;4874;43.568;27.824;2023-11-21T07:11:02;98770.81;;;10.46;100.00
9672;BME280;4874;43.568;27.824;2023-11-21T07:13:30;98777.53;;;10.40;100.00
9672;BME280;4874;43.568;27.824;2023-11-21T07:15:58;98773.72;;;10.70;100.00
9672;BME280;4874;43.568;27.824;2023-11-21T07:18:25;98770.19;;;10.79;100.00
9672;BME280;4874;43.568;27.824;2023-11-21T07:20:52;98775.66;;;10.78;100.00
9672;BME280;4874;43.568;27.824;2023-11-21T07:23:19;98777.16;;;10.62;100.00
9672;BME280;4874;43.568;27.824;2023-11-21T07:25:48;98778.78;;;10.46;100.00
9672;BME280;4874;43.568;27.824;2023-11-21T07:28:14;98771.59;;;10.29;100.00
9672;BME280;4874;43.568;27.824;2023-11-21T07:30:42;98782.19;;;10.56;100.00
9672;BME280;4874;43.568;27.824;2023-11-21T07:33:10;98780.34;;;10.66;100.00
9672;BME280;4874;43.568;27.824;2023-11-21T07:35:36;98768.44;;;10.70;100.00
9672;BME280;4874;43.568;27.824;2023-11-21T07:38:04;98781.88;;;10.86;100.00
9672;BME280;4874;43.568;27.824;2023-11-21T07:40:31;98788.78;;;10.79;100.00
9672;BME280;4874;43.568;27.824;2023-11-21T07:42:58;98793.16;;;10.71;100.00
9672;BME280;4874;43.568;27.824;2023-11-21T07:45:26;98756.31;;;10.40;100.00
9672;BME280;4874;43.568;27.824;2023-11-21T07:47:54;98753.63;;;10.50;100.00
9672;BME280;4874;43.568;27.824;2023-11-21T07:50:22;98784.31;;;10.97;100.00
9672;BME280;4874;43.568;27.824;2023-11-21T07:52:49;98794.66;;;10.73;100.00
9672;BME280;4874;43.568;27.824;2023-11-21T07:55:16;98801.41;;;11.12;100.00
9672;BME280;4874;43.568;27.824;2023-11-21T07:57:43;98794.28;;;10.95;100.00
9672;BME280;4874;43.568;27.824;2023-11-21T08:00:10;98754.78;;;10.65;100.00
9672;BME280;4874;43.568;27.824;2023-11-21T08:02:39;98754.72;;;10.92;100.00
9672;BME280;4874;43.568;27.824;2023-11-21T08:05:09;98784.34;;;11.75;100.00
9672;BME280;4874;43.568;27.824;2023-11-21T08:07:41;98785.97;;;11.68;100.00
9672;BME280;4874;43.568;27.824;2023-11-21T08:10:08;98783.66;;;11.73;100.00
9672;BME280;4874;43.568;27.824;2023-11-21T08:12:37;98791.59;;;11.65;100.00
9672;BME280;4874;43.568;27.824;2023-11-21T08:15:05;98788.34;;;11.79;100.00
9672;BME280;4874;43.568;27.824;2023-11-21T08:17:32;98794.69;;;11.43;100.00
9672;BME280;4874;43.568;27.824;2023-11-21T08:19:59;98789.81;;;11.56;100.00
9672;BME280;4874;43.568;27.824;2023-11-21T08:22:26;98789.13;;;11.54;100.00
9672;BME280;4874;43.568;27.824;2023-11-21T08:24:53;98791.97;;;11.70;100.00
9672;BME280;4874;43.568;27.824;2023-11-21T08:27:22;98792.69;;;11.80;100.00
9672;BME280;4874;43.568;27.824;2023-11-21T08:29:49;98793.22;;;11.84;100.00
9672;BME280;4874;43.568;27.824;2023-11-21T08:32:16;98803.53;;;11.87;100.00
9672;BME280;4874;43.568;27.824;2023-11-21T08:34:43;98802.00;;;11.84;100.00
9672;BME280;4874;43.568;27.824;2023-11-21T08:37:11;98792.16;;;12.03;100.00
9672;BME280;4874;43.568;27.824;2023-11-21T08:39:38;98785.06;;;11.86;100.00
9672;BME280;4874;43.568;27.824;2023-11-21T08:42:05;98790.38;;;12.11;100.00
9672;BME280;4874;43.568;27.824;2023-11-21T08:44:32;98780.59;;;11.86;100.00
9672;BME280;4874;43.568;27.824;2023-11-21T08:46:58;98781.88;;;12.08;100.00
9672;BME280;4874;43.568;27.824;2023-11-21T08:49:25;98776.00;;;12.30;100.00
9672;BME280;4874;43.568;27.824;2023-11-21T08:51:54;98766.81;;;11.91;100.00
9672;BME280;4874;43.568;27.824;2023-11-21T08:54:26;98776.75;;;12.14;100.00
9672;BME280;4874;43.568;27.824;2023-11-21T08:56:54;98774.56;;;12.10;100.00
9672;BME280;4874;43.568;27.824;2023-11-21T08:59:21;98766.06;;;12.06;100.00
9672;BME280;4874;43.568;27.824;2023-11-21T09:01:47;98766.53;;;12.02;100.00
9672;BME280;4874;43.568;27.824;2023-11-21T09:04:14;98774.50;;;12.02;100.00
9672;BME280;4874;43.568;27.824;2023-11-21T09:06:41;98768.81;;;11.97;100.00
9672;BME280;4874;43.568;27.824;2023-11-21T09:09:08;98748.19;;;11.65;100.00
9672;BME280;4874;43.568;27.824;2023-11-21T09:11:36;98758.44;;;12.11;100.00
9672;BME280;4874;43.568;27.824;2023-11-21T09:14:03;98750.88;;;11.99;100.00
9672;BME280;4874;43.568;27.824;2023-11-21T09:16:30;98756.00;;;11.92;100.00
9672;BME280;4874;43.568;27.824;2023-11-21T09:18:58;98758.97;;;12.15;100.00
9672;BME280;4874;43.568;27.824;2023-11-21T09:21:27;98737.19;;;12.19;100.00
9672;BME280;4874;43.568;27.824;2023-11-21T09:23:55;98753.41;;;12.34;100.00
9672;BME280;4874;43.568;27.824;2023-11-21T09:26:21;98759.59;;;12.09;100.00
9672;BME280;4874;43.568;27.824;2023-11-21T09:28:48;98750.97;;;12.15;100.00
9672;BME280;4874;43.568;27.824;2023-11-21T09:31:15;98741.94;;;12.00;100.00
9672;BME280;4874;43.568;27.824;2023-11-21T09:33:43;98742.41;;;12.37;100.00
9672;BME280;4874;43.568;27.824;2023-11-21T09:36:13;98741.47;;;12.46;100.00
9672;BME280;4874;43.568;27.824;2023-11-21T09:38:41;98735.47;;;12.44;100.00
9672;BME280;4874;43.568;27.824;2023-11-21T09:41:15;98744.53;;;12.75;100.00
9672;BME280;4874;43.568;27.824;2023-11-21T09:43:47;98745.44;;;12.50;100.00
9672;BME280;4874;43.568;27.824;2023-11-21T09:46:20;98739.78;;;12.45;100.00
9672;BME280;4874;43.568;27.824;2023-11-21T09:48:50;98733.81;;;12.51;100.00
9672;BME280;4874;43.568;27.824;2023-11-21T09:51:23;98733.22;;;12.89;100.00
9672;BME280;4874;43.568;27.824;2023-11-21T09:53:57;98723.09;;;13.00;100.00
9672;BME280;4874;43.568;27.824;2023-11-21T09:56:26;98727.06;;;12.88;100.00
9672;BME280;4874;43.568;27.824;2023-11-21T09:58:53;98710.75;;;12.83;100.00
9672;BME280;4874;43.568;27.824;2023-11-21T10:01:21;98692.78;;;13.34;100.00
9672;BME280;4874;43.568;27.824;2023-11-21T10:03:49;98698.97;;;13.26;100.00
9672;BME280;4874;43.568;27.824;2023-11-21T10:06:17;98700.66;;;13.11;100.00
9672;BME280;4874;43.568;27.824;2023-11-21T10:08:45;98695.09;;;13.61;100.00
9672;BME280;4874;43.568;27.824;2023-11-21T10:11:17;98679.13;;;13.37;100.00
9672;BME280;4874;43.568;27.824;2023-11-21T10:13:45;98687.09;;;13.53;100.00
9672;BME280;4874;43.568;27.824;2023-11-21T10:16:15;98678.31;;;13.91;100.00
9672;BME280;4874;43.568;27.824;2023-11-21T10:18:45;98687.53;;;13.80;100.00
9672;BME280;4874;43.568;27.824;2023-11-21T10:21:12;98685.78;;;13.41;100.00
9672;BME280;4874;43.568;27.824;2023-11-21T10:23:40;98686.59;;;13.49;100.00
9672;BME280;4874;43.568;27.824;2023-11-21T10:26:10;98690.44;;;13.55;100.00
9672;BME280;4874;43.568;27.824;2023-11-21T10:29:01;98691.88;;;13.73;100.00
9672;BME280;4874;43.568;27.824;2023-11-21T10:31:32;98686.69;;;13.88;100.00
9672;BME280;4874;43.568;27.824;2023-11-21T10:34:19;98626.31;;;13.40;100.00
9672;BME280;4874;43.568;27.824;2023-11-21T10:36:47;98680.59;;;13.55;100.00
9672;BME280;4874;43.568;27.824;2023-11-21T10:39:20;98683.81;;;13.35;100.00
9672;BME280;4874;43.568;27.824;2023-11-21T10:41:48;98698.44;;;13.47;100.00
9672;BME280;4874;43.568;27.824;2023-11-21T10:44:17;98694.09;;;13.54;100.00
9672;BME280;4874;43.568;27.824;2023-11-21T10:46:52;98685.78;;;13.41;100.00
9672;BME280;4874;43.568;27.824;2023-11-21T10:49:24;98692.09;;;13.64;100.00
9672;BME280;4874;43.568;27.824;2023-11-21T10:51:54;98673.44;;;13.48;100.00
9672;BME280;4874;43.568;27.824;2023-11-21T10:54:25;98692.22;;;13.70;100.00
9672;BME280;4874;43.568;27.824;2023-11-21T10:57:00;98667.28;;;13.39;100.00
9672;BME280;4874;43.568;27.824;2023-11-21T10:59:31;98624.63;;;13.39;100.00
9672;BME280;4874;43.568;27.824;2023-11-21T11:02:01;98665.34;;;14.27;100.00
9672;BME280;4874;43.568;27.824;2023-11-21T11:04:31;98665.56;;;14.09;100.00
9672;BME280;4874;43.568;27.824;2023-11-21T11:07:02;98667.56;;;14.15;100.00
9672;BME280;4874;43.568;27.824;2023-11-21T11:09:31;98676.81;;;13.88;100.00
9672;BME280;4874;43.568;27.824;2023-11-21T11:12:03;98666.25;;;14.42;100.00
9672;BME280;4874;43.568;27.824;2023-11-21T11:14:33;98647.25;;;14.45;100.00
9672;BME280;4874;43.568;27.824;2023-11-21T11:17:01;98678.03;;;14.55;100.00
9672;BME280;4874;43.568;27.824;2023-11-21T11:19:29;98669.59;;;14.44;100.00
9672;BME280;4874;43.568;27.824;2023-11-21T11:25:25;98611.69;;;14.05;100.00
9672;BME280;4874;43.568;27.824;2023-11-21T11:33:21;98665.28;;;14.35;100.00
9672;BME280;4874;43.568;27.824;2023-11-21T11:38:33;98658.94;;;14.89;100.00
9672;BME280;4874;43.568;27.824;2023-11-21T11:41:04;98637.19;;;14.47;100.00
9672;BME280;4874;43.568;27.824;2023-11-21T11:43:32;98663.75;;;14.71;100.00
9672;BME280;4874;43.568;27.824;2023-11-21T11:46:05;98654.66;;;14.80;100.00
9672;BME280;4874;43.568;27.824;2023-11-21T11:48:35;98641.84;;;14.75;100.00
9672;BME280;4874;43.568;27.824;2023-11-21T11:51:15;98656.69;;;14.78;100.00
9672;BME280;4874;43.568;27.824;2023-11-21T11:53:45;98661.63;;;14.89;100.00
9672;BME280;4874;43.568;27.824;2023-11-21T11:56:24;98672.34;;;15.03;100.00
9672;BME280;4874;43.568;27.824;2023-11-21T11:58:57;98637.28;;;15.21;100.00
9672;BME280;4874;43.568;27.824;2023-11-21T12:01:35;98606.25;;;14.97;100.00
9672;BME280;4874;43.568;27.824;2023-11-21T12:06:42;98652.00;;;15.17;100.00
9672;BME280;4874;43.568;27.824;2023-11-21T12:09:19;98644.66;;;15.85;99.94
9672;BME280;4874;43.568;27.824;2023-11-21T12:11:48;98651.78;;;15.26;100.00
9672;BME280;4874;43.568;27.824;2023-11-21T12:14:16;98659.44;;;15.07;100.00
9672;BME280;4874;43.568;27.824;2023-11-21T12:16:43;98649.81;;;15.20;100.00
9672;BME280;4874;43.568;27.824;2023-11-21T12:19:11;98641.81;;;15.35;100.00
9672;BME280;4874;43.568;27.824;2023-11-21T12:21:38;98609.97;;;14.74;100.00
9672;BME280;4874;43.568;27.824;2023-11-21T12:24:07;98635.50;;;15.13;100.00
9672;BME280;4874;43.568;27.824;2023-11-21T12:26:41;98631.16;;;14.98;100.00
9672;BME280;4874;43.568;27.824;2023-11-21T12:29:08;98623.41;;;15.03;100.00
9672;BME280;4874;43.568;27.824;2023-11-21T12:31:34;98625.44;;;15.01;100.00
9672;BME280;4874;43.568;27.824;2023-11-21T12:34:02;98620.38;;;15.06;100.00
9672;BME280;4874;43.568;27.824;2023-11-21T12:36:29;98609.97;;;15.11;100.00
9672;BME280;4874;43.568;27.824;2023-11-21T12:38:56;98622.69;;;15.09;100.00
9672;BME280;4874;43.568;27.824;2023-11-21T12:41:23;98624.66;;;15.15;100.00
9672;BME280;4874;43.568;27.824;2023-11-21T12:43:50;98626.09;;;15.03;100.00
9672;BME280;4874;43.568;27.824;2023-11-21T12:46:17;98626.84;;;15.11;100.00
9672;BME280;4874;43.568;27.824;2023-11-21T12:48:45;98606.16;;;15.05;100.00
9672;BME280;4874;43.568;27.824;2023-11-21T12:51:12;98622.31;;;15.12;100.00
9672;BME280;4874;43.568;27.824;2023-11-21T12:53:43;98611.91;;;15.17;100.00
9672;BME280;4874;43.568;27.824;2023-11-21T12:56:13;98584.31;;;15.02;100.00
9672;BME280;4874;43.568;27.824;2023-11-21T12:58:44;98613.53;;;15.03;100.00
9672;BME280;4874;43.568;27.824;2023-11-21T13:01:14;98629.44;;;15.34;100.00
9672;BME280;4874;43.568;27.824;2023-11-21T13:03:48;98601.38;;;15.15;100.00
9672;BME280;4874;43.568;27.824;2023-11-21T13:06:18;98636.97;;;15.53;100.00
9672;BME280;4874;43.568;27.824;2023-11-21T13:08:46;98628.16;;;15.30;100.00
9672;BME280;4874;43.568;27.824;2023-11-21T13:11:13;98628.19;;;15.45;100.00
9672;BME280;4874;43.568;27.824;2023-11-21T13:13:42;98623.16;;;15.12;100.00
9672;BME280;4874;43.568;27.824;2023-11-21T13:16:12;98631.09;;;15.20;100.00
9672;BME280;4874;43.568;27.824;2023-11-21T13:18:39;98628.63;;;14.96;100.00
9672;BME280;4874;43.568;27.824;2023-11-21T13:21:08;98599.88;;;14.61;100.00
9672;BME280;4874;43.568;27.824;2023-11-21T13:23:44;98617.91;;;14.82;100.00
9672;BME280;4874;43.568;27.824;2023-11-21T13:26:13;98617.63;;;14.77;100.00